Aérodrome :
LOGIN :

S'inscrire | Disclaimer

   EN    FR    IT 

 










Légende :    VFR   VFR Marginal   IFR   IFR Intensif   IFR Très Intensif
Visi : 
Plafond : 
>= 8 km
>= 3000ft
5 à 8 km
1000 à 3000 ft
1500m à 5 km
500 à 1000 ft
800 à 1500m
200 à 500 ft
< 800m
< 200 ft
Symboles :   Orages  Brouillard  Fortes neiges  Fortes précipitations  Vent > 20 kt
SIGMETs :   Divers  Orages  Givrage  Turbulence  Onde Orograph.  Cendres Volcan.







- Altitude de l'aérodrome : 122 ft
- Code IATA : TXL


EDDT - Berlin Tegel Int.

DERNIER METAR :
  • 191650Z 08010KT 040V120 9999 BKN015 SCT022 04/01 Q1022 TEMPO BKN013

METARs EXPIRÉS :
  • 191620Z 08008KT 040V110 9999 FEW013 SCT046 03/01 Q1022 NOSIG
  • 191550Z 07009KT 030V100 9999 FEW013 SCT046 04/01 Q1022 NOSIG
  • 191520Z 08009G22KT 030V120 9999 VCSH FEW005 SCT026 BKN046 04/01 Q1022 NOSIG
  • 191450Z 09008KT 060V120 9999 -SHRA SCT015 BKN024 04/01 Q1022 NOSIG
  • 191420Z 08011KT 030V120 9999 VCSH FEW015 BKN048 04/01 Q1022 NOSIG

TAF TAF EDDT
Valide du 19 à 12h jusqu'au 20 à 12h UTC


191100Z 1912/2012 08011KT 9999 BKN015
PROB30
TEMPO 1912/1918 08015G25KT
TEMPO 1916/2009 BKN012
TEMPO 2003/2012 08015G25KT
Pas de NOTAMs connus pour ce terrain.



MET'MAP, la Météo Aéronautique d'un coup d'oeil ! - Copyright ORBIFLY Décembre 2007 - Disclaimer

ORBIFLY MET'MAP TEAM :

Programmation & Développement : Alexandra Zaïnal
Conception & Développement : Baudouin d'Aumeries
Co-Programmation & Développement : Marc-Olivier Méhu
Soutien technique & logistique : Manuel Goepfert

Contact : metmap@orbifly.com




SOURCES & CREDITS :

   NOAA